sensor_id;sensor_type;location;lat;lon;timestamp;temperature;humidity
76759;DHT22;65701;45.588;5.186;2023-06-10T05:59:34;21.65;76.63
76759;DHT22;65701;45.588;5.186;2023-06-10T06:02:00;21.85;76.76
76759;DHT22;65701;45.588;5.186;2023-06-10T06:04:25;22.05;76.15
76759;DHT22;65701;45.588;5.186;2023-06-10T06:06:50;22.22;76.05
76759;DHT22;65701;45.588;5.186;2023-06-10T06:09:16;22.37;76.06
76759;DHT22;65701;45.588;5.186;2023-06-10T06:11:42;22.56;76.05
76759;DHT22;65701;45.588;5.186;2023-06-10T06:14:07;22.67;75.59
76759;DHT22;65701;45.588;5.186;2023-06-10T06:16:33;22.77;75.25
76759;DHT22;65701;45.588;5.186;2023-06-10T06:18:58;22.84;75.09
76759;DHT22;65701;45.588;5.186;2023-06-10T06:21:24;22.83;74.76
76759;DHT22;65701;45.588;5.186;2023-06-10T06:23:49;22.78;74.12
76759;DHT22;65701;45.588;5.186;2023-06-10T06:26:15;22.72;74.42
76759;DHT22;65701;45.588;5.186;2023-06-10T06:28:40;22.65;74.63
76759;DHT22;65701;45.588;5.186;2023-06-10T06:31:06;22.63;74.61
76759;DHT22;65701;45.588;5.186;2023-06-10T06:33:32;22.54;74.49
76759;DHT22;65701;45.588;5.186;2023-06-10T06:49:27;22.52;75.32
76759;DHT22;65701;45.588;5.186;2023-06-10T06:52:02;22.71;75.46
76759;DHT22;65701;45.588;5.186;2023-06-10T06:54:27;22.86;74.95
76759;DHT22;65701;45.588;5.186;2023-06-10T06:56:53;22.98;74.81
76759;DHT22;65701;45.588;5.186;2023-06-10T07:01:48;23.02;74.01
76759;DHT22;65701;45.588;5.186;2023-06-10T07:04:15;22.99;73.43
76759;DHT22;65701;45.588;5.186;2023-06-10T07:06:41;22.90;73.42
76759;DHT22;65701;45.588;5.186;2023-06-10T07:09:10;22.99;73.86
76759;DHT22;65701;45.588;5.186;2023-06-10T07:11:35;23.22;74.41
76759;DHT22;65701;45.588;5.186;2023-06-10T07:14:03;23.36;74.16
76759;DHT22;65701;45.588;5.186;2023-06-10T07:16:39;23.49;73.56
76759;DHT22;65701;45.588;5.186;2023-06-10T07:19:06;23.64;73.17
76759;DHT22;65701;45.588;5.186;2023-06-10T07:21:31;23.66;72.80
76759;DHT22;65701;45.588;5.186;2023-06-10T07:24:17;23.80;72.92
76759;DHT22;65701;45.588;5.186;2023-06-10T07:26:45;23.90;72.61
76759;DHT22;65701;45.588;5.186;2023-06-10T07:29:11;24.04;73.01
76759;DHT22;65701;45.588;5.186;2023-06-10T07:31:36;24.15;73.31
76759;DHT22;65701;45.588;5.186;2023-06-10T07:34:01;24.25;72.42
76759;DHT22;65701;45.588;5.186;2023-06-10T07:36:28;24.43;72.93
76759;DHT22;65701;45.588;5.186;2023-06-10T07:38:55;24.67;73.11
76759;DHT22;65701;45.588;5.186;2023-06-10T07:41:23;24.92;72.61
76759;DHT22;65701;45.588;5.186;2023-06-10T07:43:52;25.12;72.36
76759;DHT22;65701;45.588;5.186;2023-06-10T07:46:20;25.34;71.67
76759;DHT22;65701;45.588;5.186;2023-06-10T07:48:47;25.53;71.63
76759;DHT22;65701;45.588;5.186;2023-06-10T07:51:12;25.77;71.33
76759;DHT22;65701;45.588;5.186;2023-06-10T07:53:38;26.02;70.85
76759;DHT22;65701;45.588;5.186;2023-06-10T07:56:04;26.14;70.96
76759;DHT22;65701;45.588;5.186;2023-06-10T07:58:30;26.21;69.33
76759;DHT22;65701;45.588;5.186;2023-06-10T09:44:10;27.14;66.15
76759;DHT22;65701;45.588;5.186;2023-06-10T10:11:38;26.86;62.85
76759;DHT22;65701;45.588;5.186;2023-06-10T11:04:09;26.83;63.94
76759;DHT22;65701;45.588;5.186;2023-06-10T11:14:14;27.14;63.15
76759;DHT22;65701;45.588;5.186;2023-06-10T12:40:07;27.92;59.59
76759;DHT22;65701;45.588;5.186;2023-06-10T13:05:07;28.73;58.84
76759;DHT22;65701;45.588;5.186;2023-06-10T13:08:01;28.80;59.73
76759;DHT22;65701;45.588;5.186;2023-06-10T13:10:48;28.90;58.74
76759;DHT22;65701;45.588;5.186;2023-06-10T13:13:40;28.55;56.19
76759;DHT22;65701;45.588;5.186;2023-06-10T13:16:17;28.52;56.61
76759;DHT22;65701;45.588;5.186;2023-06-10T13:19:04;28.45;56.95
76759;DHT22;65701;45.588;5.186;2023-06-10T13:21:51;28.34;56.98
76759;DHT22;65701;45.588;5.186;2023-06-10T13:24:17;28.35;56.32
76759;DHT22;65701;45.588;5.186;2023-06-10T13:26:42;28.21;56.62
76759;DHT22;65701;45.588;5.186;2023-06-10T13:35:58;27.53;57.96
76759;DHT22;65701;45.588;5.186;2023-06-10T13:38:23;27.46;58.49
76759;DHT22;65701;45.588;5.186;2023-06-10T13:44:22;27.44;58.97
76759;DHT22;65701;45.588;5.186;2023-06-10T13:46:47;27.31;59.22
76759;DHT22;65701;45.588;5.186;2023-06-10T13:49:13;27.15;59.42
76759;DHT22;65701;45.588;5.186;2023-06-10T13:51:38;27.10;59.99
76759;DHT22;65701;45.588;5.186;2023-06-10T13:54:04;27.08;59.97
76759;DHT22;65701;45.588;5.186;2023-06-10T16:12:53;25.81;61.30
76759;DHT22;65701;45.588;5.186;2023-06-10T16:15:19;25.80;61.50
76759;DHT22;65701;45.588;5.186;2023-06-10T16:21:47;25.77;62.62
76759;DHT22;65701;45.588;5.186;2023-06-10T16:38:16;25.58;63.16
76759;DHT22;65701;45.588;5.186;2023-06-10T16:40:41;25.59;62.85
76759;DHT22;65701;45.588;5.186;2023-06-10T16:43:07;25.62;62.75
76759;DHT22;65701;45.588;5.186;2023-06-10T16:45:38;25.60;62.51
76759;DHT22;65701;45.588;5.186;2023-06-10T16:48:06;25.58;62.35
76759;DHT22;65701;45.588;5.186;2023-06-10T16:50:37;25.59;62.27
76759;DHT22;65701;45.588;5.186;2023-06-10T16:53:03;25.45;61.90
76759;DHT22;65701;45.588;5.186;2023-06-10T16:55:35;25.49;62.47
76759;DHT22;65701;45.588;5.186;2023-06-10T16:58:04;25.42;62.66
76759;DHT22;65701;45.588;5.186;2023-06-10T17:00:30;25.47;62.50
76759;DHT22;65701;45.588;5.186;2023-06-10T17:02:58;25.49;62.49
76759;DHT22;65701;45.588;5.186;2023-06-10T17:05:25;25.50;62.44
76759;DHT22;65701;45.588;5.186;2023-06-10T17:07:50;25.52;62.48
76759;DHT22;65701;45.588;5.186;2023-06-10T17:10:16;25.49;62.38
76759;DHT22;65701;45.588;5.186;2023-06-10T17:12:44;25.50;62.15
76759;DHT22;65701;45.588;5.186;2023-06-10T17:15:13;25.49;62.18
76759;DHT22;65701;45.588;5.186;2023-06-10T17:17:40;25.47;61.71
76759;DHT22;65701;45.588;5.186;2023-06-10T17:20:07;25.46;62.38
76759;DHT22;65701;45.588;5.186;2023-06-10T17:22:32;25.47;62.39
76759;DHT22;65701;45.588;5.186;2023-06-10T17:24:58;25.50;62.57
76759;DHT22;65701;45.588;5.186;2023-06-10T17:27:24;25.52;62.76
76759;DHT22;65701;45.588;5.186;2023-06-10T17:29:50;25.46;62.31
76759;DHT22;65701;45.588;5.186;2023-06-10T17:32:17;25.49;61.89
76759;DHT22;65701;45.588;5.186;2023-06-10T17:34:43;25.46;61.90
76759;DHT22;65701;45.588;5.186;2023-06-10T17:37:08;25.47;62.17
76759;DHT22;65701;45.588;5.186;2023-06-10T17:39:33;25.49;62.19
76759;DHT22;65701;45.588;5.186;2023-06-10T17:41:59;25.45;61.99
76759;DHT22;65701;45.588;5.186;2023-06-10T17:44:24;25.41;61.92
76759;DHT22;65701;45.588;5.186;2023-06-10T17:46:51;25.39;62.13
76759;DHT22;65701;45.588;5.186;2023-06-10T17:49:17;25.35;62.13
76759;DHT22;65701;45.588;5.186;2023-06-10T17:51:43;25.34;62.34
76759;DHT22;65701;45.588;5.186;2023-06-10T17:54:08;25.31;62.52
76759;DHT22;65701;45.588;5.186;2023-06-10T17:56:33;25.26;62.42
76759;DHT22;65701;45.588;5.186;2023-06-10T17:58:59;25.15;62.32
76759;DHT22;65701;45.588;5.186;2023-06-10T18:01:25;25.19;62.50
76759;DHT22;65701;45.588;5.186;2023-06-10T18:03:51;25.14;62.44
76759;DHT22;65701;45.588;5.186;2023-06-10T18:06:16;25.14;62.48
76759;DHT22;65701;45.588;5.186;2023-06-10T18:08:42;25.11;62.53
76759;DHT22;65701;45.588;5.186;2023-06-10T18:11:07;25.08;62.59
76759;DHT22;65701;45.588;5.186;2023-06-10T18:13:44;25.07;62.71
76759;DHT22;65701;45.588;5.186;2023-06-10T18:16:15;25.04;62.78
76759;DHT22;65701;45.588;5.186;2023-06-10T18:18:41;25.03;62.79
76759;DHT22;65701;45.588;5.186;2023-06-10T18:21:10;24.99;62.85
76759;DHT22;65701;45.588;5.186;2023-06-10T18:23:43;24.97;62.99
76759;DHT22;65701;45.588;5.186;2023-06-10T18:29:15;24.95;63.35
76759;DHT22;65701;45.588;5.186;2023-06-10T18:31:41;24.95;63.69
76759;DHT22;65701;45.588;5.186;2023-06-10T18:34:06;24.90;63.90
76759;DHT22;65701;45.588;5.186;2023-06-10T18:36:32;24.90;63.98
76759;DHT22;65701;45.588;5.186;2023-06-10T18:42:58;24.73;64.95
76759;DHT22;65701;45.588;5.186;2023-06-10T18:45:34;24.64;65.31
76759;DHT22;65701;45.588;5.186;2023-06-10T18:48:10;24.56;65.66
76759;DHT22;65701;45.588;5.186;2023-06-10T18:51:02;24.48;65.88
76759;DHT22;65701;45.588;5.186;2023-06-10T18:53:28;24.39;66.01
76759;DHT22;65701;45.588;5.186;2023-06-10T18:56:17;24.33;66.30
76759;DHT22;65701;45.588;5.186;2023-06-10T18:58:43;24.24;66.33
76759;DHT22;65701;45.588;5.186;2023-06-10T19:01:11;24.19;66.50
76759;DHT22;65701;45.588;5.186;2023-06-10T19:03:37;24.11;66.60
76759;DHT22;65701;45.588;5.186;2023-06-10T19:06:03;24.02;66.75
76759;DHT22;65701;45.588;5.186;2023-06-10T19:08:29;23.93;66.93
76759;DHT22;65701;45.588;5.186;2023-06-10T19:10:54;23.84;67.14
76759;DHT22;65701;45.588;5.186;2023-06-10T19:13:21;23.71;67.32
76759;DHT22;65701;45.588;5.186;2023-06-10T19:15:47;23.64;67.51
76759;DHT22;65701;45.588;5.186;2023-06-10T19:18:12;23.57;67.63
76759;DHT22;65701;45.588;5.186;2023-06-10T19:20:43;23.52;67.84
76759;DHT22;65701;45.588;5.186;2023-06-10T19:23:13;23.45;67.99
76759;DHT22;65701;45.588;5.186;2023-06-10T19:25:39;23.39;68.16
76759;DHT22;65701;45.588;5.186;2023-06-10T19:28:06;23.33;68.24
76759;DHT22;65701;45.588;5.186;2023-06-10T19:30:32;23.25;68.37
76759;DHT22;65701;45.588;5.186;2023-06-10T19:32:59;23.19;68.46
76759;DHT22;65701;45.588;5.186;2023-06-10T19:35:26;23.14;68.56
76759;DHT22;65701;45.588;5.186;2023-06-10T19:37:54;23.11;68.57
76759;DHT22;65701;45.588;5.186;2023-06-10T19:40:24;23.07;68.57
76759;DHT22;65701;45.588;5.186;2023-06-10T19:42:53;22.98;68.66
76759;DHT22;65701;45.588;5.186;2023-06-10T19:45:22;22.91;68.80
76759;DHT22;65701;45.588;5.186;2023-06-10T19:47:47;22.87;68.84
76759;DHT22;65701;45.588;5.186;2023-06-10T19:50:14;22.80;69.02
76759;DHT22;65701;45.588;5.186;2023-06-10T19:52:41;22.80;69.12
76759;DHT22;65701;45.588;5.186;2023-06-10T19:55:12;22.77;69.04
76759;DHT22;65701;45.588;5.186;2023-06-10T19:57:45;22.75;69.07
76759;DHT22;65701;45.588;5.186;2023-06-10T20:00:14;22.70;68.90
76759;DHT22;65701;45.588;5.186;2023-06-10T20:02:40;22.68;68.92
76759;DHT22;65701;45.588;5.186;2023-06-10T20:05:07;22.65;69.06
76759;DHT22;65701;45.588;5.186;2023-06-10T20:07:34;22.61;69.18
76759;DHT22;65701;45.588;5.186;2023-06-10T20:10:02;22.53;69.29
76759;DHT22;65701;45.588;5.186;2023-06-10T20:12:28;22.50;69.36
76759;DHT22;65701;45.588;5.186;2023-06-10T20:14:53;22.42;69.50
76759;DHT22;65701;45.588;5.186;2023-06-10T20:17:19;22.36;69.60
76759;DHT22;65701;45.588;5.186;2023-06-10T20:19:46;22.32;69.77
76759;DHT22;65701;45.588;5.186;2023-06-10T20:22:21;22.29;69.81
76759;DHT22;65701;45.588;5.186;2023-06-10T20:24:58;22.25;70.03
76759;DHT22;65701;45.588;5.186;2023-06-10T20:27:30;22.23;70.11
76759;DHT22;65701;45.588;5.186;2023-06-10T20:30:02;22.17;70.20
76759;DHT22;65701;45.588;5.186;2023-06-10T20:32:32;22.15;70.25
76759;DHT22;65701;45.588;5.186;2023-06-10T20:34:57;22.12;70.28
76759;DHT22;65701;45.588;5.186;2023-06-10T20:37:23;22.08;70.45
76759;DHT22;65701;45.588;5.186;2023-06-10T20:39:51;22.06;70.62
76759;DHT22;65701;45.588;5.186;2023-06-10T20:42:17;22.05;70.67
76759;DHT22;65701;45.588;5.186;2023-06-10T20:44:46;22.04;70.68
76759;DHT22;65701;45.588;5.186;2023-06-10T20:47:12;22.05;70.71
76759;DHT22;65701;45.588;5.186;2023-06-10T20:49:38;22.04;70.79
76759;DHT22;65701;45.588;5.186;2023-06-10T20:52:05;22.04;70.89
76759;DHT22;65701;45.588;5.186;2023-06-10T20:54:33;22.04;71.02
76759;DHT22;65701;45.588;5.186;2023-06-10T20:56:58;22.01;71.04
76759;DHT22;65701;45.588;5.186;2023-06-10T20:59:24;21.97;71.16
76759;DHT22;65701;45.588;5.186;2023-06-10T21:01:50;21.95;71.34
76759;DHT22;65701;45.588;5.186;2023-06-10T21:04:16;21.95;71.37
76759;DHT22;65701;45.588;5.186;2023-06-10T21:06:43;21.95;71.34
76759;DHT22;65701;45.588;5.186;2023-06-10T21:09:11;21.94;71.36
76759;DHT22;65701;45.588;5.186;2023-06-10T21:11:36;21.92;71.39
76759;DHT22;65701;45.588;5.186;2023-06-10T21:14:02;21.94;71.49
76759;DHT22;65701;45.588;5.186;2023-06-10T21:16:28;21.92;71.46
76759;DHT22;65701;45.588;5.186;2023-06-10T21:18:56;21.91;71.54
76759;DHT22;65701;45.588;5.186;2023-06-10T21:21:22;21.94;71.53
76759;DHT22;65701;45.588;5.186;2023-06-10T21:23:48;21.92;71.56
